sensor_id;sensor_type;location;lat;lon;timestamp;temperature;humidity
42085;DHT22;27746;52.228;20.890;2022-10-18T00:02:24;15.40;99.90
42085;DHT22;27746;52.228;20.890;2022-10-18T00:04:51;15.40;99.90
42085;DHT22;27746;52.228;20.890;2022-10-18T00:07:18;15.40;99.90
42085;DHT22;27746;52.228;20.890;2022-10-18T00:09:45;15.30;99.90
42085;DHT22;27746;52.228;20.890;2022-10-18T00:12:12;15.40;99.90
42085;DHT22;27746;52.228;20.890;2022-10-18T00:14:40;15.40;99.90
42085;DHT22;27746;52.228;20.890;2022-10-18T00:17:07;17.40;99.90
42085;DHT22;27746;52.228;20.890;2022-10-18T00:19:34;15.30;99.90
42085;DHT22;27746;52.228;20.890;2022-10-18T00:22:01;15.30;99.90
42085;DHT22;27746;52.228;20.890;2022-10-18T00:24:28;15.30;99.90
42085;DHT22;27746;52.228;20.890;2022-10-18T00:26:55;15.30;99.90
42085;DHT22;27746;52.228;20.890;2022-10-18T00:29:22;15.20;99.90
42085;DHT22;27746;52.228;20.890;2022-10-18T00:31:50;15.20;99.90
42085;DHT22;27746;52.228;20.890;2022-10-18T00:34:17;15.20;99.90
42085;DHT22;27746;52.228;20.890;2022-10-18T00:36:44;15.20;99.90
42085;DHT22;27746;52.228;20.890;2022-10-18T00:39:14;15.20;99.90
42085;DHT22;27746;52.228;20.890;2022-10-18T00:41:41;15.20;99.90
42085;DHT22;27746;52.228;20.890;2022-10-18T00:47:11;15.10;99.90
42085;DHT22;27746;52.228;20.890;2022-10-18T00:49:41;15.10;99.90
42085;DHT22;27746;52.228;20.890;2022-10-18T00:52:12;15.10;99.90
42085;DHT22;27746;52.228;20.890;2022-10-18T00:54:42;15.10;99.90
42085;DHT22;27746;52.228;20.890;2022-10-18T00:57:10;15.00;99.90
42085;DHT22;27746;52.228;20.890;2022-10-18T00:59:37;15.00;99.90
42085;DHT22;27746;52.228;20.890;2022-10-18T01:02:06;15.10;99.90
42085;DHT22;27746;52.228;20.890;2022-10-18T01:04:34;15.10;99.90
42085;DHT22;27746;52.228;20.890;2022-10-18T01:07:06;15.10;99.90
42085;DHT22;27746;52.228;20.890;2022-10-18T01:09:40;15.10;99.90
42085;DHT22;27746;52.228;20.890;2022-10-18T01:12:19;15.10;99.90
42085;DHT22;27746;52.228;20.890;2022-10-18T01:14:51;15.00;99.90
42085;DHT22;27746;52.228;20.890;2022-10-18T01:17:23;15.00;99.90
42085;DHT22;27746;52.228;20.890;2022-10-18T01:23:14;15.00;99.90
42085;DHT22;27746;52.228;20.890;2022-10-18T01:25:50;15.00;99.90
42085;DHT22;27746;52.228;20.890;2022-10-18T01:28:34;14.90;99.90
42085;DHT22;27746;52.228;20.890;2022-10-18T01:31:08;14.90;99.90
42085;DHT22;27746;52.228;20.890;2022-10-18T01:33:40;14.90;99.90
42085;DHT22;27746;52.228;20.890;2022-10-18T01:36:13;14.90;99.90
42085;DHT22;27746;52.228;20.890;2022-10-18T01:38:43;14.90;99.90
42085;DHT22;27746;52.228;20.890;2022-10-18T01:41:12;14.90;99.90
42085;DHT22;27746;52.228;20.890;2022-10-18T01:43:41;14.90;99.90
42085;DHT22;27746;52.228;20.890;2022-10-18T01:46:12;14.90;99.90
42085;DHT22;27746;52.228;20.890;2022-10-18T01:48:41;14.80;99.90
42085;DHT22;27746;52.228;20.890;2022-10-18T01:51:08;14.80;99.90
42085;DHT22;27746;52.228;20.890;2022-10-18T01:53:35;14.80;99.90
42085;DHT22;27746;52.228;20.890;2022-10-18T01:56:26;14.80;99.90
42085;DHT22;27746;52.228;20.890;2022-10-18T01:59:08;14.80;99.90
42085;DHT22;27746;52.228;20.890;2022-10-18T02:01:46;14.80;99.90
42085;DHT22;27746;52.228;20.890;2022-10-18T02:04:22;14.80;99.90
42085;DHT22;27746;52.228;20.890;2022-10-18T02:06:56;14.80;99.90
42085;DHT22;27746;52.228;20.890;2022-10-18T02:09:30;14.80;99.90
42085;DHT22;27746;52.228;20.890;2022-10-18T02:12:00;14.70;99.90
42085;DHT22;27746;52.228;20.890;2022-10-18T02:14:28;14.70;99.90
42085;DHT22;27746;52.228;20.890;2022-10-18T02:16:59;14.70;99.90
42085;DHT22;27746;52.228;20.890;2022-10-18T02:19:31;14.70;99.90
42085;DHT22;27746;52.228;20.890;2022-10-18T02:21:59;14.70;99.90
42085;DHT22;27746;52.228;20.890;2022-10-18T02:24:32;14.70;99.90
42085;DHT22;27746;52.228;20.890;2022-10-18T02:27:00;14.70;99.90
42085;DHT22;27746;52.228;20.890;2022-10-18T02:29:27;14.60;99.90
42085;DHT22;27746;52.228;20.890;2022-10-18T02:32:04;14.60;99.90
42085;DHT22;27746;52.228;20.890;2022-10-18T02:34:36;14.60;99.90
42085;DHT22;27746;52.228;20.890;2022-10-18T02:37:04;14.60;99.90
42085;DHT22;27746;52.228;20.890;2022-10-18T02:39:33;14.70;99.90
42085;DHT22;27746;52.228;20.890;2022-10-18T02:42:02;14.60;99.90
42085;DHT22;27746;52.228;20.890;2022-10-18T02:44:31;14.60;99.90
42085;DHT22;27746;52.228;20.890;2022-10-18T02:46:58;14.60;99.90
42085;DHT22;27746;52.228;20.890;2022-10-18T02:49:27;14.60;99.90
42085;DHT22;27746;52.228;20.890;2022-10-18T02:51:54;14.60;99.90
42085;DHT22;27746;52.228;20.890;2022-10-18T02:54:21;14.60;99.90
42085;DHT22;27746;52.228;20.890;2022-10-18T02:56:48;14.60;99.90
42085;DHT22;27746;52.228;20.890;2022-10-18T02:59:15;14.60;99.90
42085;DHT22;27746;52.228;20.890;2022-10-18T03:01:42;14.60;99.90
42085;DHT22;27746;52.228;20.890;2022-10-18T03:04:09;14.50;99.90
42085;DHT22;27746;52.228;20.890;2022-10-18T03:06:37;14.50;99.90
42085;DHT22;27746;52.228;20.890;2022-10-18T03:09:05;14.50;99.90
42085;DHT22;27746;52.228;20.890;2022-10-18T03:11:32;14.50;99.90
42085;DHT22;27746;52.228;20.890;2022-10-18T03:13:59;14.50;99.90
42085;DHT22;27746;52.228;20.890;2022-10-18T03:16:26;14.50;99.90
42085;DHT22;27746;52.228;20.890;2022-10-18T03:18:53;14.40;99.90
42085;DHT22;27746;52.228;20.890;2022-10-18T03:21:20;14.40;99.90
42085;DHT22;27746;52.228;20.890;2022-10-18T03:23:48;14.40;99.90
42085;DHT22;27746;52.228;20.890;2022-10-18T03:26:15;14.40;99.90
42085;DHT22;27746;52.228;20.890;2022-10-18T03:28:42;14.40;99.90
42085;DHT22;27746;52.228;20.890;2022-10-18T03:31:09;14.40;99.90
42085;DHT22;27746;52.228;20.890;2022-10-18T03:33:36;14.40;99.90
42085;DHT22;27746;52.228;20.890;2022-10-18T03:36:03;14.40;99.90
42085;DHT22;27746;52.228;20.890;2022-10-18T03:38:30;14.40;99.90
42085;DHT22;27746;52.228;20.890;2022-10-18T03:40:58;14.40;99.90
42085;DHT22;27746;52.228;20.890;2022-10-18T03:43:25;14.40;99.90
42085;DHT22;27746;52.228;20.890;2022-10-18T03:45:52;14.40;99.90
42085;DHT22;27746;52.228;20.890;2022-10-18T03:48:18;14.40;99.90
42085;DHT22;27746;52.228;20.890;2022-10-18T03:50:45;14.40;99.90
42085;DHT22;27746;52.228;20.890;2022-10-18T03:53:12;14.60;99.90
42085;DHT22;27746;52.228;20.890;2022-10-18T03:55:39;14.50;99.90
42085;DHT22;27746;52.228;20.890;2022-10-18T03:58:08;14.50;99.90
42085;DHT22;27746;52.228;20.890;2022-10-18T04:00:35;14.50;99.90
42085;DHT22;27746;52.228;20.890;2022-10-18T04:03:02;14.40;99.90
42085;DHT22;27746;52.228;20.890;2022-10-18T04:05:29;14.50;99.90
42085;DHT22;27746;52.228;20.890;2022-10-18T04:07:56;14.40;99.90
42085;DHT22;27746;52.228;20.890;2022-10-18T04:10:23;14.40;99.90
42085;DHT22;27746;52.228;20.890;2022-10-18T04:12:50;14.40;99.90
42085;DHT22;27746;52.228;20.890;2022-10-18T04:15:18;14.40;99.90
42085;DHT22;27746;52.228;20.890;2022-10-18T04:17:45;14.40;99.90
42085;DHT22;27746;52.228;20.890;2022-10-18T04:20:13;14.30;99.90
42085;DHT22;27746;52.228;20.890;2022-10-18T04:22:39;14.30;99.90
42085;DHT22;27746;52.228;20.890;2022-10-18T04:25:07;14.40;99.90
42085;DHT22;27746;52.228;20.890;2022-10-18T04:27:34;14.30;99.90
42085;DHT22;27746;52.228;20.890;2022-10-18T04:30:01;14.30;99.90
42085;DHT22;27746;52.228;20.890;2022-10-18T04:32:29;14.30;99.90
42085;DHT22;27746;52.228;20.890;2022-10-18T04:34:56;14.30;99.90
42085;DHT22;27746;52.228;20.890;2022-10-18T04:37:23;14.30;99.90
42085;DHT22;27746;52.228;20.890;2022-10-18T04:39:50;14.30;99.90
42085;DHT22;27746;52.228;20.890;2022-10-18T04:42:17;14.20;99.90
42085;DHT22;27746;52.228;20.890;2022-10-18T04:44:44;14.30;99.90
42085;DHT22;27746;52.228;20.890;2022-10-18T04:47:11;14.20;99.90
42085;DHT22;27746;52.228;20.890;2022-10-18T04:49:39;14.20;99.90
42085;DHT22;27746;52.228;20.890;2022-10-18T04:52:06;14.20;99.90
42085;DHT22;27746;52.228;20.890;2022-10-18T04:54:33;14.20;99.90
42085;DHT22;27746;52.228;20.890;2022-10-18T04:57:00;14.20;99.90
42085;DHT22;27746;52.228;20.890;2022-10-18T04:59:27;14.20;99.90
42085;DHT22;27746;52.228;20.890;2022-10-18T05:01:54;14.20;99.90
42085;DHT22;27746;52.228;20.890;2022-10-18T05:04:21;14.10;99.90
42085;DHT22;27746;52.228;20.890;2022-10-18T05:06:49;14.10;99.90
42085;DHT22;27746;52.228;20.890;2022-10-18T05:09:16;14.10;99.90
42085;DHT22;27746;52.228;20.890;2022-10-18T05:11:43;14.10;99.90
42085;DHT22;27746;52.228;20.890;2022-10-18T05:14:10;14.10;99.90
42085;DHT22;27746;52.228;20.890;2022-10-18T05:16:37;14.10;99.90
42085;DHT22;27746;52.228;20.890;2022-10-18T05:19:04;14.10;99.90
42085;DHT22;27746;52.228;20.890;2022-10-18T05:21:31;14.10;99.90
42085;DHT22;27746;52.228;20.890;2022-10-18T05:23:59;14.00;99.90
42085;DHT22;27746;52.228;20.890;2022-10-18T05:26:26;14.00;99.90
42085;DHT22;27746;52.228;20.890;2022-10-18T05:28:53;14.10;99.90
42085;DHT22;27746;52.228;20.890;2022-10-18T05:31:20;14.10;99.90
42085;DHT22;27746;52.228;20.890;2022-10-18T05:33:47;14.10;99.90
42085;DHT22;27746;52.228;20.890;2022-10-18T05:36:14;14.10;99.90
42085;DHT22;27746;52.228;20.890;2022-10-18T05:38:41;14.00;99.90
42085;DHT22;27746;52.228;20.890;2022-10-18T05:41:11;14.10;99.90
42085;DHT22;27746;52.228;20.890;2022-10-18T05:43:39;14.10;99.90
42085;DHT22;27746;52.228;20.890;2022-10-18T05:46:06;14.10;99.90
42085;DHT22;27746;52.228;20.890;2022-10-18T05:48:33;14.10;99.90
42085;DHT22;27746;52.228;20.890;2022-10-18T05:51:00;14.20;99.90
42085;DHT22;27746;52.228;20.890;2022-10-18T05:53:27;14.20;99.90
42085;DHT22;27746;52.228;20.890;2022-10-18T05:55:58;14.20;99.90
42085;DHT22;27746;52.228;20.890;2022-10-18T05:58:26;14.20;99.90
42085;DHT22;27746;52.228;20.890;2022-10-18T06:00:53;14.20;99.90
42085;DHT22;27746;52.228;20.890;2022-10-18T06:03:20;14.30;99.90
42085;DHT22;27746;52.228;20.890;2022-10-18T06:05:47;14.30;99.90
42085;DHT22;27746;52.228;20.890;2022-10-18T06:08:14;14.40;99.90
42085;DHT22;27746;52.228;20.890;2022-10-18T06:10:41;14.40;99.90
42085;DHT22;27746;52.228;20.890;2022-10-18T06:13:08;14.50;99.90
42085;DHT22;27746;52.228;20.890;2022-10-18T06:15:36;14.50;99.90
42085;DHT22;27746;52.228;20.890;2022-10-18T06:18:03;14.60;99.90
42085;DHT22;27746;52.228;20.890;2022-10-18T06:20:30;14.70;99.90
42085;DHT22;27746;52.228;20.890;2022-10-18T06:22:57;14.70;99.90
42085;DHT22;27746;52.228;20.890;2022-10-18T06:25:23;14.80;99.90
42085;DHT22;27746;52.228;20.890;2022-10-18T06:27:50;14.90;99.90
42085;DHT22;27746;52.228;20.890;2022-10-18T06:30:17;15.00;99.90
42085;DHT22;27746;52.228;20.890;2022-10-18T06:32:46;15.00;99.90
42085;DHT22;27746;52.228;20.890;2022-10-18T06:35:13;15.10;99.90
42085;DHT22;27746;52.228;20.890;2022-10-18T06:37:39;15.10;99.90
42085;DHT22;27746;52.228;20.890;2022-10-18T06:40:07;15.10;99.90
42085;DHT22;27746;52.228;20.890;2022-10-18T06:42:34;15.20;99.90
42085;DHT22;27746;52.228;20.890;2022-10-18T06:45:01;15.20;99.90
42085;DHT22;27746;52.228;20.890;2022-10-18T06:47:28;15.20;99.90
42085;DHT22;27746;52.228;20.890;2022-10-18T06:49:57;15.30;99.90
42085;DHT22;27746;52.228;20.890;2022-10-18T06:52:24;15.30;99.90
42085;DHT22;27746;52.228;20.890;2022-10-18T06:54:51;15.40;99.90
42085;DHT22;27746;52.228;20.890;2022-10-18T06:57:19;15.40;99.90
42085;DHT22;27746;52.228;20.890;2022-10-18T06:59:46;15.50;99.90
42085;DHT22;27746;52.228;20.890;2022-10-18T07:02:15;15.60;99.90
42085;DHT22;27746;52.228;20.890;2022-10-18T07:04:42;15.70;99.90
42085;DHT22;27746;52.228;20.890;2022-10-18T07:07:10;15.70;99.90
42085;DHT22;27746;52.228;20.890;2022-10-18T07:09:37;15.80;99.90
42085;DHT22;27746;52.228;20.890;2022-10-18T07:12:05;15.80;99.90
42085;DHT22;27746;52.228;20.890;2022-10-18T07:14:32;15.90;99.90
42085;DHT22;27746;52.228;20.890;2022-10-18T07:16:59;15.90;99.90
42085;DHT22;27746;52.228;20.890;2022-10-18T07:19:26;16.00;99.90
42085;DHT22;27746;52.228;20.890;2022-10-18T07:21:53;16.10;99.90
42085;DHT22;27746;52.228;20.890;2022-10-18T07:24:21;16.10;99.90
42085;DHT22;27746;52.228;20.890;2022-10-18T07:26:48;16.20;99.90
42085;DHT22;27746;52.228;20.890;2022-10-18T07:29:15;16.30;99.90
42085;DHT22;27746;52.228;20.890;2022-10-18T07:31:42;16.30;99.90
42085;DHT22;27746;52.228;20.890;2022-10-18T07:34:11;16.40;99.90
42085;DHT22;27746;52.228;20.890;2022-10-18T07:36:38;16.40;99.90
42085;DHT22;27746;52.228;20.890;2022-10-18T07:39:05;16.40;99.90
42085;DHT22;27746;52.228;20.890;2022-10-18T07:41:34;16.60;99.90
42085;DHT22;27746;52.228;20.890;2022-10-18T07:44:01;16.70;99.90
42085;DHT22;27746;52.228;20.890;2022-10-18T07:46:29;16.80;99.90
42085;DHT22;27746;52.228;20.890;2022-10-18T07:48:56;16.80;99.90
42085;DHT22;27746;52.228;20.890;2022-10-18T07:51:24;17.00;99.90
42085;DHT22;27746;52.228;20.890;2022-10-18T07:53:52;17.10;99.90
42085;DHT22;27746;52.228;20.890;2022-10-18T07:56:20;17.10;99.90
42085;DHT22;27746;52.228;20.890;2022-10-18T07:58:50;17.10;99.90
42085;DHT22;27746;52.228;20.890;2022-10-18T08:01:17;17.20;99.90
42085;DHT22;27746;52.228;20.890;2022-10-18T08:03:44;17.20;99.90
42085;DHT22;27746;52.228;20.890;2022-10-18T08:06:13;17.30;99.90
42085;DHT22;27746;52.228;20.890;2022-10-18T08:08:40;17.30;99.90
42085;DHT22;27746;52.228;20.890;2022-10-18T08:11:09;17.30;99.90
42085;DHT22;27746;52.228;20.890;2022-10-18T08:13:36;17.30;99.90
42085;DHT22;27746;52.228;20.890;2022-10-18T08:16:06;17.30;99.90
42085;DHT22;27746;52.228;20.890;2022-10-18T08:18:34;17.40;99.90
42085;DHT22;27746;52.228;20.890;2022-10-18T08:21:02;17.50;99.90
42085;DHT22;27746;52.228;20.890;2022-10-18T08:23:30;17.60;99.90
42085;DHT22;27746;52.228;20.890;2022-10-18T08:26:00;17.70;99.90
42085;DHT22;27746;52.228;20.890;2022-10-18T08:28:27;17.90;99.90
42085;DHT22;27746;52.228;20.890;2022-10-18T08:30:53;18.00;99.70
42085;DHT22;27746;52.228;20.890;2022-10-18T08:33:22;18.20;99.60
42085;DHT22;27746;52.228;20.890;2022-10-18T08:35:55;18.40;99.10
42085;DHT22;27746;52.228;20.890;2022-10-18T08:38:23;18.70;98.60
42085;DHT22;27746;52.228;20.890;2022-10-18T08:40:50;18.90;98.00
42085;DHT22;27746;52.228;20.890;2022-10-18T08:43:25;19.10;98.10
42085;DHT22;27746;52.228;20.890;2022-10-18T08:45:54;19.30;97.70
42085;DHT22;27746;52.228;20.890;2022-10-18T08:48:29;19.50;97.20
42085;DHT22;27746;52.228;20.890;2022-10-18T08:50:59;19.80;97.20
42085;DHT22;27746;52.228;20.890;2022-10-18T08:53:28;20.00;96.90
42085;DHT22;27746;52.228;20.890;2022-10-18T08:56:02;20.30;96.20
42085;DHT22;27746;52.228;20.890;2022-10-18T08:58:31;20.50;95.60
42085;DHT22;27746;52.228;20.890;2022-10-18T09:01:07;20.70;95.10
42085;DHT22;27746;52.228;20.890;2022-10-18T09:04:12;20.90;94.90
42085;DHT22;27746;52.228;20.890;2022-10-18T09:06:48;21.20;94.60
42085;DHT22;27746;52.228;20.890;2022-10-18T09:09:30;21.40;94.30
42085;DHT22;27746;52.228;20.890;2022-10-18T09:12:18;21.60;93.90
42085;DHT22;27746;52.228;20.890;2022-10-18T09:15:15;21.70;93.20
42085;DHT22;27746;52.228;20.890;2022-10-18T09:17:56;21.80;92.90
42085;DHT22;27746;52.228;20.890;2022-10-18T09:20:33;22.00;92.70
42085;DHT22;27746;52.228;20.890;2022-10-18T09:23:11;22.30;92.40
42085;DHT22;27746;52.228;20.890;2022-10-18T09:25:44;22.50;91.80
42085;DHT22;27746;52.228;20.890;2022-10-18T09:28:15;22.80;91.40
42085;DHT22;27746;52.228;20.890;2022-10-18T09:30:51;23.50;91.00
42085;DHT22;27746;52.228;20.890;2022-10-18T09:33:39;24.10;89.80
42085;DHT22;27746;52.228;20.890;2022-10-18T09:36:13;24.50;88.00
42085;DHT22;27746;52.228;20.890;2022-10-18T09:38:45;24.80;85.60
42085;DHT22;27746;52.228;20.890;2022-10-18T09:41:17;25.50;83.30
42085;DHT22;27746;52.228;20.890;2022-10-18T09:43:51;26.00;81.50
42085;DHT22;27746;52.228;20.890;2022-10-18T09:46:21;26.20;80.30
42085;DHT22;27746;52.228;20.890;2022-10-18T09:48:53;28.60;79.80
42085;DHT22;27746;52.228;20.890;2022-10-18T09:51:25;28.30;75.30
42085;DHT22;27746;52.228;20.890;2022-10-18T09:54:03;29.50;72.10
42085;DHT22;27746;52.228;20.890;2022-10-18T09:56:34;30.50;69.60
42085;DHT22;27746;52.228;20.890;2022-10-18T09:59:02;31.40;66.20
42085;DHT22;27746;52.228;20.890;2022-10-18T10:01:30;31.90;63.30
42085;DHT22;27746;52.228;20.890;2022-10-18T10:03:58;32.40;62.60
42085;DHT22;27746;52.228;20.890;2022-10-18T10:06:28;32.90;60.40
42085;DHT22;27746;52.228;20.890;2022-10-18T10:08:59;33.50;59.50
42085;DHT22;27746;52.228;20.890;2022-10-18T10:11:29;34.00;58.70
42085;DHT22;27746;52.228;20.890;2022-10-18T10:13:57;34.00;57.10
42085;DHT22;27746;52.228;20.890;2022-10-18T10:16:33;34.60;56.40
42085;DHT22;27746;52.228;20.890;2022-10-18T10:19:17;35.10;55.70
42085;DHT22;27746;52.228;20.890;2022-10-18T10:21:46;34.90;54.60
42085;DHT22;27746;52.228;20.890;2022-10-18T10:24:24;34.00;55.40
42085;DHT22;27746;52.228;20.890;2022-10-18T10:26:58;32.50;57.00
42085;DHT22;27746;52.228;20.890;2022-10-18T10:29:57;31.20;59.20
42085;DHT22;27746;52.228;20.890;2022-10-18T10:32:27;30.20;60.90
42085;DHT22;27746;52.228;20.890;2022-10-18T10:34:54;29.30;62.60
42085;DHT22;27746;52.228;20.890;2022-10-18T10:37:29;28.80;63.20
42085;DHT22;27746;52.228;20.890;2022-10-18T10:40:12;28.20;65.10
42085;DHT22;27746;52.228;20.890;2022-10-18T10:45:34;27.70;66.70
42085;DHT22;27746;52.228;20.890;2022-10-18T10:48:05;27.30;67.40
42085;DHT22;27746;52.228;20.890;2022-10-18T10:50:48;27.20;67.90
42085;DHT22;27746;52.228;20.890;2022-10-18T10:53:27;28.10;67.50
42085;DHT22;27746;52.228;20.890;2022-10-18T10:55:56;29.10;65.90
42085;DHT22;27746;52.228;20.890;2022-10-18T10:58:24;30.20;64.00
42085;DHT22;27746;52.228;20.890;2022-10-18T11:00:52;30.50;62.60
42085;DHT22;27746;52.228;20.890;2022-10-18T11:03:22;30.80;61.80
42085;DHT22;27746;52.228;20.890;2022-10-18T11:05:50;31.20;61.40
42085;DHT22;27746;52.228;20.890;2022-10-18T11:08:21;31.70;61.00
42085;DHT22;27746;52.228;20.890;2022-10-18T11:11:01;32.10;60.00
42085;DHT22;27746;52.228;20.890;2022-10-18T11:13:45;32.60;59.30
42085;DHT22;27746;52.228;20.890;2022-10-18T11:16:18;32.80;59.70
42085;DHT22;27746;52.228;20.890;2022-10-18T11:18:48;32.20;59.30
42085;DHT22;27746;52.228;20.890;2022-10-18T11:21:18;32.20;59.50
42085;DHT22;27746;52.228;20.890;2022-10-18T11:23:48;32.00;59.60
42085;DHT22;27746;52.228;20.890;2022-10-18T11:26:30;31.80;59.90
42085;DHT22;27746;52.228;20.890;2022-10-18T11:29:18;31.50;60.30
42085;DHT22;27746;52.228;20.890;2022-10-18T11:31:55;31.00;61.10
42085;DHT22;27746;52.228;20.890;2022-10-18T11:34:40;30.10;61.60
42085;DHT22;27746;52.228;20.890;2022-10-18T11:37:16;30.00;62.30
42085;DHT22;27746;52.228;20.890;2022-10-18T11:39:56;29.90;62.00
42085;DHT22;27746;52.228;20.890;2022-10-18T11:42:34;29.70;62.50
42085;DHT22;27746;52.228;20.890;2022-10-18T11:45:16;29.60;63.70
42085;DHT22;27746;52.228;20.890;2022-10-18T11:47:50;29.00;64.00
42085;DHT22;27746;52.228;20.890;2022-10-18T11:50:24;29.10;64.70
42085;DHT22;27746;52.228;20.890;2022-10-18T11:53:04;29.50;64.10
42085;DHT22;27746;52.228;20.890;2022-10-18T11:55:45;29.60;63.00
42085;DHT22;27746;52.228;20.890;2022-10-18T11:58:27;29.10;63.70
42085;DHT22;27746;52.228;20.890;2022-10-18T12:01:05;28.50;64.80
42085;DHT22;27746;52.228;20.890;2022-10-18T12:03:46;28.20;65.90
42085;DHT22;27746;52.228;20.890;2022-10-18T12:06:18;27.80;67.10
42085;DHT22;27746;52.228;20.890;2022-10-18T12:08:47;27.50;67.30
42085;DHT22;27746;52.228;20.890;2022-10-18T12:11:18;27.10;68.60
42085;DHT22;27746;52.228;20.890;2022-10-18T12:13:50;26.80;69.20
42085;DHT22;27746;52.228;20.890;2022-10-18T12:16:20;26.50;70.10
42085;DHT22;27746;52.228;20.890;2022-10-18T12:18:53;26.10;71.50
42085;DHT22;27746;52.228;20.890;2022-10-18T12:21:22;25.70;72.40
42085;DHT22;27746;52.228;20.890;2022-10-18T12:23:52;25.20;74.30
42085;DHT22;27746;52.228;20.890;2022-10-18T12:26:21;24.60;74.10
42085;DHT22;27746;52.228;20.890;2022-10-18T12:29:02;24.00;75.90
42085;DHT22;27746;52.228;20.890;2022-10-18T12:31:36;23.50;77.40
42085;DHT22;27746;52.228;20.890;2022-10-18T12:34:18;23.20;79.30
42085;DHT22;27746;52.228;20.890;2022-10-18T12:36:58;22.90;81.00
42085;DHT22;27746;52.228;20.890;2022-10-18T12:39:33;22.70;81.90
42085;DHT22;27746;52.228;20.890;2022-10-18T12:42:03;22.60;82.40
42085;DHT22;27746;52.228;20.890;2022-10-18T12:44:33;22.40;82.70
42085;DHT22;27746;52.228;20.890;2022-10-18T12:47:02;22.30;83.20
42085;DHT22;27746;52.228;20.890;2022-10-18T12:49:31;22.20;83.30
42085;DHT22;27746;52.228;20.890;2022-10-18T12:52:01;22.10;84.00
42085;DHT22;27746;52.228;20.890;2022-10-18T12:54:29;21.90;84.50
42085;DHT22;27746;52.228;20.890;2022-10-18T12:56:57;21.80;85.30
42085;DHT22;27746;52.228;20.890;2022-10-18T12:59:50;21.80;86.30
42085;DHT22;27746;52.228;20.890;2022-10-18T13:02:21;21.60;86.00
42085;DHT22;27746;52.228;20.890;2022-10-18T13:04:48;21.40;86.90
42085;DHT22;27746;52.228;20.890;2022-10-18T13:07:19;21.20;88.00
42085;DHT22;27746;52.228;20.890;2022-10-18T13:12:59;20.90;89.50
42085;DHT22;27746;52.228;20.890;2022-10-18T13:15:39;20.80;90.20
42085;DHT22;27746;52.228;20.890;2022-10-18T13:18:17;20.70;90.40
42085;DHT22;27746;52.228;20.890;2022-10-18T13:20:49;20.70;91.00
42085;DHT22;27746;52.228;20.890;2022-10-18T13:23:33;20.60;91.30
42085;DHT22;27746;52.228;20.890;2022-10-18T13:26:12;20.50;91.50
42085;DHT22;27746;52.228;20.890;2022-10-18T13:28:50;20.40;91.80
42085;DHT22;27746;52.228;20.890;2022-10-18T13:31:21;20.40;92.10
42085;DHT22;27746;52.228;20.890;2022-10-18T13:33:50;20.30;92.30
42085;DHT22;27746;52.228;20.890;2022-10-18T13:36:21;20.30;92.50
42085;DHT22;27746;52.228;20.890;2022-10-18T13:39:02;20.30;92.90
42085;DHT22;27746;52.228;20.890;2022-10-18T13:41:31;20.30;93.20
42085;DHT22;27746;52.228;20.890;2022-10-18T13:44:09;20.20;93.60
42085;DHT22;27746;52.228;20.890;2022-10-18T13:53:15;20.20;94.30
42085;DHT22;27746;52.228;20.890;2022-10-18T13:55:54;20.10;94.60
42085;DHT22;27746;52.228;20.890;2022-10-18T13:58:32;20.10;94.90
42085;DHT22;27746;52.228;20.890;2022-10-18T14:01:11;20.10;95.00
42085;DHT22;27746;52.228;20.890;2022-10-18T14:04:05;20.00;95.50
42085;DHT22;27746;52.228;20.890;2022-10-18T14:06:44;19.90;95.70
42085;DHT22;27746;52.228;20.890;2022-10-18T14:09:16;19.90;95.80
42085;DHT22;27746;52.228;20.890;2022-10-18T14:11:48;19.90;96.00
42085;DHT22;27746;52.228;20.890;2022-10-18T14:14:21;19.80;96.30
42085;DHT22;27746;52.228;20.890;2022-10-18T14:16:55;19.70;96.60
42085;DHT22;27746;52.228;20.890;2022-10-18T14:19:28;19.70;97.00
42085;DHT22;27746;52.228;20.890;2022-10-18T14:22:15;19.60;97.30
42085;DHT22;27746;52.228;20.890;2022-10-18T14:24:47;19.50;97.80
42085;DHT22;27746;52.228;20.890;2022-10-18T14:27:18;19.40;98.20
42085;DHT22;27746;52.228;20.890;2022-10-18T14:29:45;19.30;98.40
42085;DHT22;27746;52.228;20.890;2022-10-18T14:32:22;19.30;98.90
42085;DHT22;27746;52.228;20.890;2022-10-18T14:34:50;19.10;99.30
42085;DHT22;27746;52.228;20.890;2022-10-18T14:37:24;19.00;99.80
42085;DHT22;27746;52.228;20.890;2022-10-18T14:39:52;18.80;99.90
42085;DHT22;27746;52.228;20.890;2022-10-18T14:42:21;18.80;99.90
42085;DHT22;27746;52.228;20.890;2022-10-18T14:44:49;18.60;99.90
42085;DHT22;27746;52.228;20.890;2022-10-18T14:47:19;18.50;99.90
42085;DHT22;27746;52.228;20.890;2022-10-18T14:49:48;18.40;99.90
42085;DHT22;27746;52.228;20.890;2022-10-18T14:52:16;18.30;99.90
42085;DHT22;27746;52.228;20.890;2022-10-18T14:54:45;18.20;99.90
42085;DHT22;27746;52.228;20.890;2022-10-18T14:57:18;18.20;99.90
42085;DHT22;27746;52.228;20.890;2022-10-18T14:59:47;18.10;99.90
42085;DHT22;27746;52.228;20.890;2022-10-18T15:02:20;18.00;99.90
42085;DHT22;27746;52.228;20.890;2022-10-18T15:04:55;17.90;99.90
42085;DHT22;27746;52.228;20.890;2022-10-18T15:07:22;17.90;99.90
42085;DHT22;27746;52.228;20.890;2022-10-18T15:09:52;17.80;99.90
42085;DHT22;27746;52.228;20.890;2022-10-18T15:12:20;17.70;99.90
42085;DHT22;27746;52.228;20.890;2022-10-18T15:14:47;17.60;99.90
42085;DHT22;27746;52.228;20.890;2022-10-18T15:17:21;17.50;99.90
42085;DHT22;27746;52.228;20.890;2022-10-18T15:19:55;17.40;99.90
42085;DHT22;27746;52.228;20.890;2022-10-18T15:22:24;17.40;99.90
42085;DHT22;27746;52.228;20.890;2022-10-18T15:25:16;17.30;99.90
42085;DHT22;27746;52.228;20.890;2022-10-18T15:27:45;17.20;99.90
42085;DHT22;27746;52.228;20.890;2022-10-18T15:30:23;17.10;99.90
42085;DHT22;27746;52.228;20.890;2022-10-18T15:32:54;16.90;99.90
42085;DHT22;27746;52.228;20.890;2022-10-18T15:35:24;16.80;99.90
42085;DHT22;27746;52.228;20.890;2022-10-18T15:37:54;16.80;99.90
42085;DHT22;27746;52.228;20.890;2022-10-18T15:40:41;16.70;99.90
42085;DHT22;27746;52.228;20.890;2022-10-18T15:43:34;16.60;99.90
42085;DHT22;27746;52.228;20.890;2022-10-18T15:46:04;16.50;99.90
42085;DHT22;27746;52.228;20.890;2022-10-18T15:48:34;16.30;99.90
42085;DHT22;27746;52.228;20.890;2022-10-18T15:51:03;16.30;99.90
42085;DHT22;27746;52.228;20.890;2022-10-18T15:53:42;16.20;99.90
42085;DHT22;27746;52.228;20.890;2022-10-18T15:56:26;16.00;99.90
42085;DHT22;27746;52.228;20.890;2022-10-18T15:58:54;15.90;99.90